Time;durP1;ratioP1;P1;durP2;ratioP2;P2;SDS_P1;SDS_P2;PMS_P1;PMS_P2;Temp;Humidity;BMP_temperature;BMP_pressure;BME280_temperature;BME280_humidity;BME280_pressure;Samples;Min_cycle;Max_cycle;Signal;HPM_P1;HPM_P2
2021/12/04 00:00:44;;;;;;;;;;;;;;;;;;;;;
2021/12/04 00:03:23;;;;;;;9.05;4.05;;;5.90;99.90;;;3.89;100.00;99050.97;5069926;28;20402;-92
2021/12/04 00:06:10;;;;;;;5.57;3.92;;;6.00;99.90;;;3.89;100.00;99057.16;5052108;28;20440;-92
2021/12/04 00:09:04;;;;;;;7.15;3.60;;;6.00;99.90;;;3.90;100.00;99049.94;5034698;28;20382;-91
2021/12/04 00:11:32;;;;;;;6.88;3.95;;;6.00;99.90;;;3.85;100.00;99045.09;5034887;28;20049;-92
2021/12/04 00:14:22;;;;;;;8.15;3.78;;;6.00;99.90;;;3.84;100.00;99045.25;5034649;28;20064;-92
2021/12/04 00:16:58;;;;;;;6.25;3.40;;;6.00;99.90;;;3.81;100.00;99041.09;5051429;28;20053;-92
2021/12/04 00:19:27;;;;;;;5.22;3.45;;;6.00;99.90;;;3.80;100.00;99033.19;5038956;28;20534;-92
2021/12/04 00:22:12;;;;;;;;;;;;;;;;;;;;;
2021/12/04 00:25:03;;;;;;;6.60;3.33;;;6.00;99.90;;;3.89;100.00;99030.25;5054335;28;20052;-93
2021/12/04 00:27:37;;;;;;;5.35;3.55;;;6.00;99.90;;;3.89;100.00;99026.72;5055084;28;20052;-92
2021/12/04 00:30:23;;;;;;;7.05;3.60;;;6.00;99.90;;;3.90;100.00;99023.00;5054898;28;20059;-93
2021/12/04 00:33:01;;;;;;;5.15;3.60;;;6.00;99.90;;;3.88;100.00;99009.75;5055027;28;20048;-92
2021/12/04 00:35:42;;;;;;;5.80;3.72;;;5.90;99.90;;;3.89;100.00;99010.59;5051355;28;20421;-93
2021/12/04 00:49:22;;;;;;;5.65;3.20;;;6.00;99.90;;;3.84;100.00;99002.19;5054504;28;20140;-91
2021/12/04 00:52:00;;;;;;;6.75;3.42;;;6.00;99.90;;;3.85;100.00;99018.19;5054559;28;20049;-93
2021/12/04 00:54:30;;;;;;;;;;;6.00;99.90;;;3.83;100.00;99001.38;5053770;28;20075;-92
2021/12/04 00:56:58;;;;;;;6.40;3.50;;;6.00;99.90;;;3.85;100.00;99001.19;5054164;28;19920;-91
2021/12/04 00:59:27;;;;;;;6.07;3.22;;;6.00;99.90;;;3.84;100.00;99002.19;5054263;28;20044;-92
2021/12/04 01:02:00;;;;;;;6.28;3.70;;;6.00;99.90;;;3.86;100.00;98998.31;5054642;28;20052;-94
2021/12/04 01:04:28;;;;;;;5.57;3.63;;;6.00;99.90;;;3.85;100.00;98993.13;5054013;28;20059;-93
2021/12/04 01:07:06;;;;;;;5.68;3.58;;;6.00;99.90;;;3.83;100.00;98996.00;5054186;28;20056;-91
2021/12/04 01:09:43;;;;;;;6.75;3.13;;;6.00;99.90;;;3.84;100.00;98981.50;5050728;28;20049;-92
2021/12/04 01:12:13;;;;;;;6.47;3.38;;;6.00;99.90;;;3.88;100.00;98979.28;5054088;28;20052;-91
2021/12/04 01:14:41;;;;;;;5.45;3.42;;;6.00;99.90;;;3.85;100.00;98976.97;5053822;28;20055;-92
2021/12/04 01:17:22;;;;;;;8.60;3.47;;;6.00;99.90;;;3.91;100.00;98985.16;5072049;28;20046;-92
2021/12/04 01:20:01;;;;;;;7.57;3.90;;;6.00;99.90;;;3.89;100.00;98967.53;5054292;28;20048;-93
2021/12/04 01:22:33;;;;;;;5.85;3.90;;;6.00;99.90;;;3.87;100.00;98967.69;5054022;28;20578;-92
2021/12/04 01:25:13;;;;;;;;;;;;;;;;;;;;;
2021/12/04 01:28:20;;;;;;;6.70;4.07;;;6.00;99.90;;;3.87;100.00;98956.94;5042075;28;20049;-92
2021/12/04 01:31:02;;;;;;;7.45;4.10;;;6.00;99.90;;;3.88;100.00;98955.94;5056349;28;20052;-92
2021/12/04 01:33:36;;;;;;;6.40;4.15;;;6.00;99.90;;;3.90;100.00;98948.53;5054553;28;20131;-93
2021/12/04 01:36:29;;;;;;;8.00;4.60;;;6.00;99.90;;;3.88;100.00;98955.94;5072135;28;20054;-92
2021/12/04 01:39:01;;;;;;;9.13;4.47;;;6.00;99.90;;;3.88;100.00;98949.69;5053769;28;20051;-92
2021/12/04 01:42:01;;;;;;;9.10;3.85;;;6.00;99.90;;;3.86;100.00;98955.25;5054105;28;20040;-92
2021/12/04 01:48:07;;;;;;;7.00;3.83;;;6.10;99.90;;;3.96;100.00;98956.88;5071276;28;20056;-93
2021/12/04 01:51:10;;;;;;;8.93;4.03;;;6.10;99.90;;;3.94;100.00;98953.53;4958252;28;20078;-92
2021/12/04 01:58:00;;;;;;;6.07;3.47;;;6.10;99.90;;;3.92;100.00;98954.56;5056977;28;20480;-93
2021/12/04 02:08:25;;;;;;;6.00;3.67;;;6.10;99.90;;;3.97;100.00;98947.78;4853956;29;20055;-92
2021/12/04 02:11:30;;;;;;;6.22;3.50;;;6.10;99.90;;;3.96;100.00;98940.72;4977693;28;20052;-92
2021/12/04 02:14:12;;;;;;;;;;;;;;;;;;;;;
2021/12/04 02:17:39;;;;;;;;;;;;;;;;;;;;;
2021/12/04 02:21:30;;;;;;;6.72;3.70;;;6.10;99.90;;;3.99;100.00;98929.59;5060161;28;20055;-92
2021/12/04 02:25:36;;;;;;;;;;;;;;;;;;;;;
2021/12/04 02:28:52;;;;;;;;;;;;;;;;;;;;;
2021/12/04 02:32:24;;;;;;;;;;;;;;;;;;;;;
2021/12/04 02:35:02;;;;;;;9.23;3.85;;;6.20;99.90;;;4.04;100.00;98911.06;4960025;28;20080;-93
2021/12/04 02:38:04;;;;;;;6.43;3.47;;;6.20;99.90;;;4.06;100.00;98909.03;4977796;28;20081;-91
2021/12/04 02:41:12;;;;;;;;;;;;;;;;;;;;;
2021/12/04 02:45:01;;;;;;;6.35;3.88;;;6.20;99.90;;;4.09;100.00;98903.25;4989297;28;20129;-92
2021/12/04 02:48:05;;;;;;;5.78;3.53;;;6.20;99.90;;;4.09;100.00;98908.63;4994089;28;20057;-92
2021/12/04 02:51:19;;;;;;;6.35;3.50;;;6.20;99.90;;;4.11;100.00;98898.53;4983768;28;20061;-94
2021/12/04 02:54:04;;;;;;;6.05;3.55;;;6.20;99.90;;;4.15;100.00;98891.78;4993857;28;20117;-93
2021/12/04 02:56:32;;;;;;;5.88;3.38;;;6.20;99.90;;;4.17;100.00;98883.50;4992458;28;20781;-92
2021/12/04 02:59:17;;;;;;;;;;;;;;;;;;;;;
2021/12/04 03:05:02;;;;;;;5.68;3.47;;;6.20;99.90;;;4.19;100.00;98871.53;5079568;23;20054;-89
2021/12/04 03:07:29;;;;;;;6.20;3.72;;;6.20;99.90;;;4.16;100.00;98863.81;5067087;28;20484;-89
2021/12/04 03:09:56;;;;;;;6.75;4.00;;;6.20;99.90;;;4.20;100.00;98861.59;5088238;28;20120;-88
2021/12/04 03:12:25;;;;;;;4.85;3.38;;;6.20;99.90;;;4.20;100.00;98857.03;5088815;28;20040;-89
2021/12/04 03:14:54;;;;;;;6.68;3.80;;;6.20;99.90;;;4.22;100.00;98855.00;5089687;28;20456;-89
2021/12/04 03:17:25;;;;;;;8.55;3.75;;;6.20;99.90;;;4.23;100.00;98839.69;5090488;28;20082;-88
2021/12/04 03:19:54;;;;;;;9.77;3.85;;;6.20;99.90;;;4.20;100.00;98831.97;5072084;28;20059;-89
2021/12/04 03:22:23;;;;;;;5.60;3.53;;;6.20;99.90;;;4.15;100.00;98827.16;5085447;28;20510;-89
2021/12/04 03:24:51;;;;;;;8.80;3.88;;;6.20;99.90;;;4.18;100.00;98821.38;5086778;28;20419;-89
2021/12/04 03:27:20;;;;;;;5.80;3.70;;;6.20;99.90;;;4.14;100.00;98814.72;5090129;28;20046;-89
2021/12/04 03:29:52;;;;;;;5.82;3.53;;;6.20;99.90;;;4.16;100.00;98814.53;5089989;28;20047;-89
2021/12/04 03:35:21;;;;;;;6.15;3.80;;;6.20;99.90;;;4.16;100.00;98818.03;5086362;28;20056;-87
2021/12/04 03:40:39;;;;;;;6.22;3.40;;;6.20;99.90;;;4.21;100.00;98804.88;5087277;28;20092;-86
2021/12/04 03:43:09;;;;;;;8.27;3.97;;;6.10;99.90;;;4.20;100.00;98808.56;5069177;28;20102;-87
2021/12/04 03:45:40;;;;;;;6.15;3.80;;;6.20;99.90;;;4.18;100.00;98805.22;5069568;28;20475;-87
2021/12/04 03:48:11;;;;;;;5.80;3.70;;;6.30;99.90;;;4.19;100.00;98801.53;5077475;28;20071;-88
2021/12/04 03:50:40;;;;;;;6.18;3.88;;;6.30;99.90;;;4.19;100.00;98800.69;5089981;28;20032;-87
2021/12/04 03:53:07;;;;;;;6.68;3.70;;;6.30;99.90;;;4.20;100.00;98803.19;5089634;28;20488;-87
2021/12/04 03:55:35;;;;;;;6.10;3.78;;;6.30;99.90;;;4.20;100.00;98803.19;5087847;28;20668;-87
2021/12/04 03:58:02;;;;;;;7.65;3.90;;;6.30;99.90;;;4.25;100.00;98799.94;5081845;28;20036;-87
2021/12/04 04:00:29;;;;;;;6.25;3.85;;;6.30;99.90;;;4.20;100.00;98808.56;5071237;28;20086;-88
2021/12/04 04:02:58;;;;;;;8.02;3.90;;;6.30;99.90;;;4.22;100.00;98798.44;5088664;28;20165;-87
2021/12/04 04:05:25;;;;;;;7.00;4.05;;;6.30;99.90;;;4.25;100.00;98806.16;5089181;28;20044;-87
2021/12/04 04:07:54;;;;;;;6.60;3.80;;;6.30;99.90;;;4.26;100.00;98793.53;5089445;28;20097;-86
2021/12/04 04:10:22;;;;;;;5.90;3.88;;;6.30;99.90;;;4.26;100.00;98797.06;5088987;28;20448;-87
2021/12/04 04:12:49;;;;;;;6.65;4.47;;;6.40;99.90;;;4.25;100.00;98790.00;5085195;28;20554;-87
2021/12/04 04:15:17;;;;;;;6.15;3.78;;;6.30;99.90;;;4.25;100.00;98789.19;5089126;28;20040;-87
2021/12/04 04:17:45;;;;;;;5.65;3.60;;;6.30;99.90;;;4.24;100.00;98788.31;5087876;28;20109;-87
2021/12/04 04:20:15;;;;;;;6.07;3.83;;;6.30;99.90;;;4.26;100.00;98780.91;5089366;28;20072;-86
2021/12/04 04:22:43;;;;;;;6.38;4.00;;;6.30;99.90;;;4.28;100.00;98784.25;5085186;28;20143;-87
2021/12/04 04:25:14;;;;;;;7.75;3.83;;;6.30;99.90;;;4.28;100.00;98778.88;5070516;28;20079;-87
2021/12/04 04:27:42;;;;;;;7.78;4.18;;;6.30;99.90;;;4.27;100.00;98771.81;5087895;28;20048;-87
2021/12/04 04:30:14;;;;;;;6.05;4.18;;;6.40;99.90;;;4.27;100.00;98782.59;5089264;28;20043;-87
2021/12/04 04:32:41;;;;;;;6.18;3.70;;;6.40;99.90;;;4.27;100.00;98777.19;5071203;28;20146;-87
2021/12/04 04:35:11;;;;;;;9.43;4.32;;;6.40;99.90;;;4.26;100.00;98786.28;5087403;28;20062;-86
2021/12/04 04:37:46;;;;;;;7.25;3.72;;;6.40;99.90;;;4.27;100.00;98779.88;5084199;28;20052;-87
2021/12/04 04:59:43;;;;;;;6.25;3.63;;;6.40;99.90;;;4.34;100.00;98761.13;5088209;28;20040;-86
2021/12/04 05:10:51;;;;;;;5.63;3.67;;;6.50;99.90;;;4.34;100.00;98761.13;5068428;28;20044;-86
2021/12/04 05:13:21;;;;;;;6.95;3.90;;;6.40;99.90;;;4.34;100.00;98747.66;5085579;28;20040;-86
2021/12/04 05:15:57;;;;;;;5.47;3.60;;;6.40;99.90;;;4.33;100.00;98748.69;5088425;28;20557;-86
2021/12/04 05:18:35;;;;;;;5.40;3.50;;;6.40;99.90;;;4.36;100.00;98750.16;5088435;28;20040;-86
2021/12/04 05:21:07;;;;;;;6.13;3.60;;;6.40;99.90;;;4.37;100.00;98747.28;5090309;28;20044;-86
2021/12/04 05:23:35;;;;;;;;;;;6.40;99.90;;;4.37;100.00;98751.84;5074703;28;20052;-87
2021/12/04 05:26:04;;;;;;;6.38;3.80;;;6.40;99.90;;;4.36;100.00;98751.00;5074180;28;20389;-86
2021/12/04 05:28:33;;;;;;;5.78;3.78;;;6.40;99.90;;;4.39;100.00;98758.69;5090724;28;20111;-87
2021/12/04 05:31:01;;;;;;;6.95;3.75;;;6.40;99.90;;;4.36;100.00;98753.69;5073932;28;20134;-87
2021/12/04 05:33:29;;;;;;;6.15;3.83;;;6.40;99.90;;;4.37;100.00;98751.84;5092538;28;20083;-87
2021/12/04 05:35:57;;;;;;;6.90;4.07;;;6.40;99.90;;;4.39;100.00;98755.19;5091438;28;20123;-87
2021/12/04 05:38:25;;;;;;;5.93;4.07;;;6.40;99.90;;;4.41;100.00;98742.34;5090965;28;20134;-86
2021/12/04 05:40:53;;;;;;;5.55;3.85;;;6.40;99.90;;;4.41;100.00;98742.34;5091918;28;20078;-87
2021/12/04 05:43:22;;;;;;;7.13;4.32;;;6.40;99.90;;;4.42;100.00;98744.03;5090960;28;20115;-87
2021/12/04 05:45:57;;;;;;;6.78;4.03;;;6.40;99.90;;;4.42;100.00;98741.34;5090384;28;20068;-86
2021/12/04 05:48:34;;;;;;;6.68;4.30;;;6.40;99.90;;;4.41;100.00;98740.47;5092024;28;20036;-87
2021/12/04 05:53:56;;;;;;;8.60;4.55;;;6.40;99.90;;;4.37;100.00;98741.06;5088687;28;20058;-87
2021/12/04 05:56:24;;;;;;;5.85;4.10;;;6.40;99.90;;;4.36;100.00;98737.53;5091875;28;20047;-87
2021/12/04 05:58:52;;;;;;;6.50;3.97;;;6.40;99.90;;;4.36;100.00;98732.16;5091995;28;20407;-87
2021/12/04 06:01:23;;;;;;;8.30;4.38;;;6.50;99.90;;;4.37;100.00;98735.69;5087239;28;20064;-87
2021/12/04 06:03:50;;;;;;;7.63;4.22;;;6.50;99.90;;;4.40;100.00;98735.28;5090014;28;20462;-87
2021/12/04 06:06:18;;;;;;;8.93;4.28;;;6.50;99.90;;;4.42;100.00;98730.56;5091916;28;20559;-88
2021/12/04 06:08:45;;;;;;;6.30;4.13;;;6.40;99.90;;;4.41;100.00;98727.03;5091745;28;20137;-87
2021/12/04 06:11:13;;;;;;;7.40;4.20;;;6.40;99.90;;;4.41;100.00;98731.56;5092118;28;20074;-87
2021/12/04 06:13:40;;;;;;;8.55;4.25;;;6.40;99.90;;;4.40;100.00;98743.38;5091604;28;20069;-86
2021/12/04 06:16:08;;;;;;;7.00;4.07;;;6.40;99.90;;;4.41;100.00;98745.03;5073071;28;20434;-84
2021/12/04 06:18:37;;;;;;;7.95;4.43;;;6.40;99.90;;;4.40;100.00;98740.66;5091043;28;20040;-84
2021/12/04 06:23:49;;;;;;;7.85;4.00;;;6.40;99.90;;;4.41;100.00;98726.19;5091290;28;20044;-83
2021/12/04 06:26:17;;;;;;;7.15;4.07;;;6.40;99.90;;;4.41;100.00;98726.19;5091163;28;20048;-84
2021/12/04 06:28:44;;;;;;;7.25;3.88;;;6.40;99.90;;;4.42;100.00;98731.41;5091514;28;20091;-84
2021/12/04 06:31:12;;;;;;;9.10;5.10;;;6.50;99.90;;;4.42;100.00;98727.88;5091127;28;20074;-83
2021/12/04 06:33:41;;;;;;;6.38;4.07;;;6.50;99.90;;;4.42;100.00;98730.56;5091124;28;20075;-84
2021/12/04 06:36:10;;;;;;;6.50;3.95;;;6.50;99.90;;;4.43;100.00;98727.66;5085841;28;20044;-84
2021/12/04 06:38:37;;;;;;;7.45;4.13;;;6.50;99.90;;;4.43;100.00;98726.84;5072406;28;20079;-84
2021/12/04 06:41:06;;;;;;;9.38;3.90;;;6.50;99.90;;;4.39;100.00;98725.56;5091538;28;20160;-85
2021/12/04 06:43:35;;;;;;;8.48;4.32;;;6.50;99.90;;;4.38;100.00;98722.03;5091275;28;20442;-84
2021/12/04 06:46:04;;;;;;;6.45;4.18;;;6.50;99.90;;;4.34;100.00;98720.75;5091078;28;20079;-83
2021/12/04 06:48:39;;;;;;;7.10;4.13;;;6.40;99.90;;;4.36;100.00;98725.91;5079791;28;20119;-84
2021/12/04 06:51:15;;;;;;;7.60;4.75;;;6.50;99.90;;;4.37;100.00;98717.66;5071009;28;20132;-84
2021/12/04 06:53:47;;;;;;;6.85;4.53;;;6.50;99.90;;;4.35;100.00;98710.81;5079022;28;20048;-84
2021/12/04 06:56:16;;;;;;;7.20;4.53;;;6.50;99.90;;;4.35;100.00;98713.50;5090448;28;20063;-83
2021/12/04 06:58:43;;;;;;;7.50;4.68;;;6.40;99.90;;;4.36;100.00;98720.53;5091025;28;20040;-84
2021/12/04 07:01:12;;;;;;;6.22;3.97;;;6.40;99.90;;;4.33;100.00;98715.53;5090764;28;20067;-87
2021/12/04 07:03:40;;;;;;;7.68;4.38;;;6.40;99.90;;;4.35;100.00;98710.81;5088701;28;20827;-86
2021/12/04 07:06:09;;;;;;;8.30;4.30;;;6.40;99.90;;;4.36;100.00;98715.16;5089839;28;20458;-84
2021/12/04 07:08:36;;;;;;;8.55;4.20;;;6.50;99.90;;;4.36;100.00;98717.84;5089046;28;20058;-83
2021/12/04 07:11:06;;;;;;;6.00;4.07;;;6.40;99.90;;;4.38;100.00;98718.47;5084270;28;20570;-84
2021/12/04 07:13:34;;;;;;;6.47;4.10;;;6.50;99.90;;;4.37;100.00;98717.66;5090440;28;20082;-82
2021/12/04 07:16:04;;;;;;;6.90;4.38;;;6.50;99.90;;;4.39;100.00;98722.84;5090453;28;20039;-83
2021/12/04 07:18:32;;;;;;;7.10;3.67;;;6.50;99.90;;;4.37;100.00;98722.22;5072220;28;20048;-85
2021/12/04 07:20:59;;;;;;;7.90;4.50;;;6.50;99.90;;;4.38;100.00;98718.47;5090759;28;20115;-85
2021/12/04 07:23:28;;;;;;;6.68;4.30;;;6.50;99.90;;;4.39;100.00;98714.78;5071888;28;20438;-86
2021/12/04 07:25:57;;;;;;;7.03;4.25;;;6.50;99.90;;;4.36;100.00;98709.75;5087655;28;20119;-87
2021/12/04 07:28:25;;;;;;;7.10;4.30;;;6.50;99.90;;;4.39;100.00;98710.22;5090165;28;20526;-87
2021/12/04 07:30:52;;;;;;;9.88;4.65;;;6.50;99.90;;;4.45;100.00;98714.00;5088957;28;20419;-87
2021/12/04 07:33:20;;;;;;;8.15;4.60;;;6.50;99.90;;;4.44;100.00;98718.56;5084762;28;20468;-87
2021/12/04 07:35:47;;;;;;;7.07;4.43;;;6.50;99.90;;;4.46;100.00;98718.38;5087238;28;20172;-88
2021/12/04 07:38:15;;;;;;;7.10;4.43;;;6.50;99.90;;;4.44;100.00;98717.75;5072044;28;20151;-88
2021/12/04 07:40:44;;;;;;;6.78;4.43;;;6.50;99.90;;;4.48;100.00;98717.16;5090058;28;20044;-87
2021/12/04 07:43:12;;;;;;;6.22;3.97;;;6.50;99.90;;;4.47;100.00;98711.97;5069886;28;20073;-88
2021/12/04 07:45:40;;;;;;;7.13;4.35;;;6.50;99.90;;;4.43;100.00;98711.50;5089489;28;20046;-87
2021/12/04 07:48:08;;;;;;;6.70;4.20;;;6.50;99.90;;;4.44;100.00;98712.34;5070938;28;20146;-87
2021/12/04 07:50:37;;;;;;;6.63;4.18;;;6.50;99.90;;;4.45;100.00;98720.22;5071652;28;20087;-87
2021/12/04 07:53:04;;;;;;;7.47;3.85;;;6.60;99.90;;;4.48;100.00;98710.94;5088436;28;20052;-87
2021/12/04 07:55:32;;;;;;;6.10;3.80;;;6.50;99.90;;;4.51;100.00;98705.16;5088263;28;20610;-88
2021/12/04 07:58:02;;;;;;;7.68;4.25;;;6.50;99.90;;;4.52;100.00;98708.72;5087023;28;20044;-88
2021/12/04 08:00:30;;;;;;;6.18;3.85;;;6.50;99.90;;;4.56;100.00;98715.38;5089812;28;20404;-89
2021/12/04 08:02:57;;;;;;;7.13;4.07;;;6.60;99.90;;;4.57;100.00;98720.59;5071170;28;20048;-88
2021/12/04 08:05:25;;;;;;;6.18;3.90;;;6.60;99.90;;;4.57;100.00;98715.19;5088080;28;20404;-89
2021/12/04 08:07:52;;;;;;;6.43;4.00;;;6.60;99.90;;;4.59;100.00;98721.22;5088459;28;20512;-87
2021/12/04 08:10:21;;;;;;;5.90;3.60;;;6.60;99.90;;;4.58;100.00;98716.03;5088065;28;20074;-86
2021/12/04 08:12:49;;;;;;;8.75;4.47;;;6.60;99.90;;;4.60;100.00;98716.66;5088251;28;20052;-86
2021/12/04 08:15:18;;;;;;;6.22;3.88;;;6.60;99.90;;;4.62;100.00;98712.75;5086759;28;20051;-86
2021/12/04 08:17:45;;;;;;;6.80;3.75;;;6.70;99.90;;;4.65;100.00;98719.63;5089474;28;20055;-89
2021/12/04 08:20:14;;;;;;;6.68;4.00;;;6.60;99.90;;;4.64;100.00;98713.38;5090467;28;20051;-88
2021/12/04 08:22:42;;;;;;;6.00;3.78;;;6.60;99.90;;;4.64;100.00;98713.38;5071770;28;20048;-89
2021/12/04 08:25:11;;;;;;;6.10;3.80;;;6.70;99.90;;;4.67;100.00;98713.03;5087940;28;20093;-88
2021/12/04 08:27:39;;;;;;;6.75;3.67;;;6.70;99.90;;;4.66;100.00;98708.69;5087884;28;20177;-88
2021/12/04 08:30:11;;;;;;;6.60;3.85;;;6.70;99.90;;;4.68;100.00;98703.94;5087657;28;20048;-86
2021/12/04 08:32:40;;;;;;;7.05;4.40;;;6.70;99.90;;;4.72;100.00;98707.03;5086944;28;20048;-88
2021/12/04 08:35:11;;;;;;;6.55;3.85;;;6.70;99.90;;;4.75;100.00;98708.53;5070671;28;20079;-86
2021/12/04 08:37:38;;;;;;;6.85;4.03;;;6.70;99.90;;;4.76;100.00;98704.81;5089056;28;20135;-87
2021/12/04 08:40:11;;;;;;;6.43;3.88;;;6.70;99.90;;;4.77;100.00;98706.50;5088924;28;20523;-87
2021/12/04 08:42:39;;;;;;;8.82;3.70;;;6.70;99.90;;;4.79;100.00;98705.25;5088717;28;20135;-87
2021/12/04 08:45:09;;;;;;;7.80;4.43;;;6.80;99.90;;;4.82;100.00;98698.66;5086416;28;20043;-84
2021/12/04 08:47:37;;;;;;;5.95;3.90;;;6.80;99.90;;;4.86;100.00;98694.56;5083427;28;20040;-88
2021/12/04 08:50:09;;;;;;;7.47;3.97;;;6.80;99.90;;;4.85;100.00;98687.47;5089138;28;20048;-88
2021/12/04 08:52:36;;;;;;;8.75;4.53;;;6.80;99.90;;;4.86;100.00;98687.31;5070256;28;20693;-87
2021/12/04 08:55:06;;;;;;;7.93;4.53;;;6.80;99.90;;;4.88;100.00;98687.13;5094384;28;20450;-90
2021/12/04 08:57:33;;;;;;;7.30;4.60;;;6.80;99.90;;;4.89;100.00;98694.16;5079318;28;20044;-87
2021/12/04 09:00:01;;;;;;;8.02;4.95;;;6.80;99.90;;;4.85;100.00;98700.97;5086977;28;20036;-89
2021/12/04 09:02:28;;;;;;;7.38;4.78;;;6.80;99.90;;;4.89;100.00;98696.84;5086810;28;20036;-87
2021/12/04 09:04:57;;;;;;;7.65;4.68;;;6.80;99.90;;;4.94;100.00;98697.13;5069073;28;20087;-86
2021/12/04 09:07:26;;;;;;;7.47;4.88;;;6.80;99.90;;;4.98;100.00;98693.00;5071774;28;20036;-87
2021/12/04 09:09:56;;;;;;;7.00;4.80;;;6.90;99.90;;;4.97;100.00;98691.34;5079878;28;20078;-95
2021/12/04 09:12:26;;;;;;;7.10;4.47;;;6.90;99.90;;;5.03;100.00;98692.44;5084636;28;20477;-92
2021/12/04 09:14:55;;;;;;;7.90;4.93;;;6.90;99.90;;;5.01;100.00;98695.31;5068450;28;20044;-93
2021/12/04 09:17:24;;;;;;;8.25;5.65;;;6.90;99.90;;;5.00;100.00;98696.34;5080675;28;20074;-92
2021/12/04 09:19:51;;;;;;;8.90;5.10;;;6.90;99.90;;;5.05;100.00;98698.47;5084311;28;20044;-91
2021/12/04 09:22:26;;;;;;;9.85;5.00;;;7.00;99.90;;;5.06;100.00;98692.88;5079311;28;20044;-93
2021/12/04 09:24:58;;;;;;;7.78;4.72;;;7.00;99.90;;;5.07;100.00;98693.72;5087086;28;20067;-92
2021/12/04 09:27:39;;;;;;;8.13;5.20;;;7.00;99.90;;;5.09;100.00;98695.16;5083658;28;20040;-91
2021/12/04 09:30:19;;;;;;;7.57;4.88;;;7.00;99.90;;;5.11;100.00;98684.19;5062582;28;20096;-93
2021/12/04 10:00:46;;;;;;;9.30;5.43;;;7.10;99.90;;;5.35;100.00;98634.41;5063783;28;20505;-86
2021/12/04 10:03:34;;;;;;;8.33;5.43;;;7.20;99.90;;;5.44;100.00;98629.66;5081678;28;20056;-85
2021/12/04 10:12:22;;;;;;;8.13;5.60;;;7.30;99.90;;;5.58;100.00;98608.97;5064742;28;20049;-86
2021/12/04 10:21:13;;;;;;;8.05;5.18;;;7.40;99.90;;;5.70;100.00;98588.50;5061254;28;20080;-86
2021/12/04 10:32:28;;;;;;;6.95;4.82;;;7.40;99.90;;;5.52;100.00;98574.72;5074840;28;20083;-85
2021/12/04 10:34:59;;;;;;;7.07;4.65;;;7.40;99.90;;;5.45;100.00;98578.22;5065960;28;20055;-86
2021/12/04 10:37:30;;;;;;;7.70;4.60;;;7.40;99.90;;;5.41;100.00;98578.81;5082962;28;20048;-86
2021/12/04 10:40:02;;;;;;;6.63;4.82;;;7.40;99.90;;;5.37;100.00;98573.00;5064277;28;20151;-85
2021/12/04 10:42:44;;;;;;;8.75;5.00;;;7.40;99.90;;;5.36;100.00;98570.50;5082360;28;20036;-85
2021/12/04 10:45:12;;;;;;;7.63;4.82;;;7.40;99.90;;;5.34;100.00;98562.59;5060218;28;20045;-85
2021/12/04 10:47:50;;;;;;;8.43;5.25;;;7.40;99.90;;;5.38;100.00;98557.63;5051055;28;20429;-86
2021/12/04 10:50:25;;;;;;;7.70;4.57;;;7.40;99.90;;;5.41;100.00;98551.84;5050996;28;20114;-85
2021/12/04 10:52:57;;;;;;;6.93;4.63;;;7.40;99.90;;;5.46;100.00;98544.81;5051165;28;20052;-87
2021/12/04 10:55:31;;;;;;;8.48;4.93;;;7.40;99.90;;;5.53;100.00;98544.00;5068308;28;20033;-86
2021/12/04 11:01:13;;;;;;;7.70;4.50;;;7.40;99.90;;;5.61;100.00;98524.94;5050343;28;20063;-86
2021/12/04 11:03:49;;;;;;;7.18;4.60;;;7.40;99.90;;;5.58;100.00;98510.00;5067301;28;20512;-86
2021/12/04 11:06:43;;;;;;;6.72;4.38;;;7.50;99.90;;;5.61;100.00;98508.75;5067022;28;20049;-86
2021/12/04 11:40:28;;;;;;;5.63;3.43;;;7.60;99.90;;;5.77;100.00;98430.13;4989536;28;20145;-87
2021/12/04 11:43:03;;;;;;;8.52;4.03;;;7.60;99.90;;;5.80;100.00;98437.78;5030011;28;20079;-88
2021/12/04 11:45:44;;;;;;;8.85;4.00;;;7.60;99.90;;;5.80;100.00;98443.19;5029834;28;20059;-87
2021/12/04 11:48:14;;;;;;;;;;;7.60;99.90;;;5.80;100.00;98431.56;5066374;28;20067;-88
2021/12/04 11:50:50;;;;;;;5.22;3.45;;;7.60;99.90;;;5.84;100.00;98439.03;5050052;28;20046;-88
2021/12/04 11:53:19;;;;;;;39.72;5.88;;;7.70;99.90;;;5.85;100.00;98440.72;5046626;28;20607;-87
2021/12/04 11:55:51;;;;;;;6.45;4.00;;;7.70;99.90;;;5.82;100.00;98434.91;5063366;28;20045;-87
2021/12/04 11:58:22;;;;;;;12.77;4.13;;;7.70;99.90;;;5.76;100.00;98433.03;5046230;28;20053;-87
2021/12/04 12:00:51;;;;;;;;;;;7.70;99.90;;;5.75;100.00;98429.50;5030319;28;20041;-87
2021/12/04 12:03:24;;;;;;;46.22;5.18;;;7.70;99.90;;;5.85;100.00;98429.91;5030577;28;20038;-86
2021/12/04 12:05:54;;;;;;;9.30;4.45;;;7.70;99.90;;;6.06;100.00;98412.72;5067838;28;20045;-94
2021/12/04 12:08:27;;;;;;;5.47;3.70;;;7.70;99.90;;;6.09;100.00;98403.38;5075239;28;20056;-94
2021/12/04 12:10:59;;;;;;;5.47;3.88;;;7.70;99.90;;;6.04;100.00;98404.00;5062406;28;20074;-92
2021/12/04 12:13:33;;;;;;;6.28;3.67;;;7.70;99.90;;;5.99;100.00;98402.97;5094006;28;20044;-92
2021/12/04 12:16:08;;;;;;;4.75;3.45;;;7.70;99.90;;;5.95;100.00;98405.25;5075517;28;20105;-94
2021/12/04 12:18:52;;;;;;;6.90;4.13;;;7.70;99.90;;;5.94;100.00;98400.03;5091939;28;20108;-94
2021/12/04 12:21:25;;;;;;;5.63;3.70;;;7.70;99.90;;;5.92;100.00;98404.78;5110153;28;20033;-94
2021/12/04 12:27:05;;;;;;;6.20;3.95;;;7.60;99.90;;;5.88;100.00;98383.63;5107556;28;20041;-93
2021/12/04 12:38:43;;;;;;;5.00;3.60;;;7.60;99.90;;;5.83;100.00;98350.19;5076334;28;20035;-94
2021/12/04 12:41:18;;;;;;;5.63;3.72;;;7.70;99.90;;;5.93;100.00;98355.19;5076686;28;20028;-96
2021/12/04 12:44:07;;;;;;;5.35;3.65;;;7.70;99.90;;;5.95;100.00;98334.19;5076484;28;20047;-94
2021/12/04 12:46:43;;;;;;;5.82;4.10;;;7.70;99.90;;;5.98;100.00;98333.81;5076337;28;20051;-93
2021/12/04 12:49:26;;;;;;;5.07;3.80;;;7.70;99.90;;;6.01;100.00;98330.69;5092814;28;20103;-95
2021/12/04 12:52:00;;;;;;;6.15;3.17;;;7.70;99.90;;;6.04;100.00;98335.69;5093336;28;20115;-94
2021/12/04 12:54:34;;;;;;;5.88;4.05;;;7.80;99.90;;;5.97;100.00;98324.88;5076151;28;20029;-95
2021/12/04 12:57:07;;;;;;;5.10;3.65;;;7.80;99.90;;;6.01;100.00;98320.72;5076312;28;20039;-92
2021/12/04 12:59:57;;;;;;;5.05;3.45;;;7.80;99.90;;;5.94;100.00;98324.44;5109814;28;20036;-95
2021/12/04 13:13:55;;;;;;;4.90;3.22;;;7.80;99.90;;;6.03;100.00;98318.63;5075742;28;20032;-95
2021/12/04 13:16:30;;;;;;;5.47;3.67;;;7.80;99.90;;;5.98;100.00;98309.53;5072758;28;20025;-95
2021/12/04 13:19:03;;;;;;;6.85;3.30;;;7.80;99.90;;;5.92;100.00;98315.72;5072308;28;20029;-94
2021/12/04 13:21:36;;;;;;;5.47;3.40;;;7.80;99.90;;;5.94;100.00;98322.59;5056183;28;20301;-95
2021/12/04 13:24:10;;;;;;;11.95;3.88;;;7.80;99.90;;;5.95;100.00;98320.69;5055860;28;20029;-94
2021/12/04 13:26:44;;;;;;;5.03;3.40;;;7.80;99.90;;;5.94;100.00;98319.88;5056182;28;20033;-95
2021/12/04 13:29:15;;;;;;;6.00;3.50;;;7.80;99.90;;;5.91;100.00;98324.88;5089325;28;20033;-95
2021/12/04 13:31:43;;;;;;;5.40;3.40;;;7.80;99.90;;;5.90;100.00;98328.59;5056155;28;20037;-94
2021/12/04 13:34:14;;;;;;;7.30;4.30;;;7.80;99.90;;;5.90;100.00;98328.59;5055712;28;20063;-94
2021/12/04 13:36:45;;;;;;;;;;;7.80;99.90;;;5.81;100.00;98325.28;5089856;28;20270;-95
2021/12/04 13:39:18;;;;;;;7.47;4.30;;;7.80;99.90;;;5.83;100.00;98336.69;5055827;28;19919;-96
2021/12/04 13:41:48;;;;;;;8.55;4.75;;;7.80;99.90;;;5.79;100.00;98336.28;5055985;28;20100;-96
2021/12/04 13:44:18;;;;;;;7.43;4.70;;;7.80;99.90;;;5.74;100.00;98336.06;5056012;28;20233;-95
2021/12/04 13:46:49;;;;;;;6.53;4.55;;;7.80;99.90;;;5.72;100.00;98338.16;5056057;28;20024;-96
2021/12/04 13:51:55;;;;;;;6.47;4.20;;;7.80;99.90;;;5.74;100.00;98343.34;5065436;28;20101;-87
2021/12/04 13:54:26;;;;;;;7.35;4.30;;;7.80;99.90;;;5.71;100.00;98347.25;5067933;28;20083;-87
2021/12/04 13:56:54;;;;;;;9.25;5.15;;;7.80;99.90;;;5.68;100.00;98347.69;5068281;28;20135;-86
2021/12/04 13:59:24;;;;;;;7.45;4.70;;;7.80;99.90;;;5.66;100.00;98341.69;5068028;28;20120;-91
2021/12/04 14:01:52;;;;;;;10.38;4.88;;;7.80;99.90;;;5.62;100.00;98343.97;5068549;28;20052;-87
2021/12/04 14:04:20;;;;;;;10.07;4.72;;;7.80;99.90;;;5.65;100.00;98338.16;5067725;28;20052;-85
2021/12/04 14:06:54;;;;;;;9.25;5.57;;;7.80;99.90;;;5.62;100.00;98343.13;5066934;28;20050;-85
2021/12/04 14:09:30;;;;;;;6.72;4.53;;;7.80;99.90;;;5.56;100.00;98335.84;5067401;28;20095;-85